Time;durP1;ratioP1;P1;durP2;ratioP2;P2;SDS_P1;SDS_P2;PMS_P1;PMS_P2;Temp;Humidity;BMP_temperature;BMP_pressure;BME280_temperature;BME280_humidity;BME280_pressure;Samples;Min_cycle;Max_cycle;Signal;HPM_P1;HPM_P2
2022/07/25 00:02:00;;;;;;;5.47;5.00;;;24.40;99.90;;;;;;5102626;28;20220;-54
2022/07/25 00:04:28;;;;;;;6.17;5.30;;;24.40;99.90;;;;;;5105845;28;20670;-54
2022/07/25 00:06:55;;;;;;;8.77;4.77;;;24.40;99.90;;;;;;5102820;27;20307;-56
2022/07/25 00:09:22;;;;;;;5.77;5.03;;;24.40;99.90;;;;;;5105847;27;20201;-54
2022/07/25 00:11:49;;;;;;;5.80;5.03;;;24.40;99.90;;;;;;5101409;27;20616;-54
2022/07/25 00:14:17;;;;;;;6.40;4.87;;;24.30;99.90;;;;;;5082940;28;20210;-54
2022/07/25 00:16:44;;;;;;;8.00;5.03;;;24.30;99.90;;;;;;5082630;27;20209;-55
2022/07/25 00:19:11;;;;;;;5.70;5.20;;;24.30;99.90;;;;;;5071524;28;20218;-55
2022/07/25 00:21:38;;;;;;;5.57;4.90;;;24.30;99.90;;;;;;5106886;27;20218;-55
2022/07/25 00:24:06;;;;;;;5.80;4.90;;;24.20;99.90;;;;;;5106685;27;20198;-56
2022/07/25 00:26:34;;;;;;;5.07;4.67;;;24.20;99.90;;;;;;5107422;27;20728;-54
2022/07/25 00:29:06;;;;;;;5.53;4.93;;;24.20;99.90;;;;;;5107834;27;20323;-55
2022/07/25 00:31:33;;;;;;;6.27;5.03;;;24.20;99.90;;;;;;5070123;28;20232;-56
2022/07/25 00:34:01;;;;;;;6.00;5.00;;;24.20;99.90;;;;;;5107635;28;20692;-58
2022/07/25 00:36:33;;;;;;;5.85;5.35;;;24.10;99.90;;;;;;4903732;28;10000454;-55
2022/07/25 00:39:01;;;;;;;6.17;5.33;;;24.10;99.90;;;;;;5098550;28;20767;-55
2022/07/25 00:41:28;;;;;;;5.30;4.80;;;24.00;99.90;;;;;;5069375;27;20221;-54
2022/07/25 00:43:55;;;;;;;8.13;5.70;;;24.00;99.90;;;;;;5106317;27;20210;-57
2022/07/25 00:46:22;;;;;;;6.80;5.40;;;24.00;99.90;;;;;;5101070;27;20208;-56
2022/07/25 00:48:50;;;;;;;5.57;5.00;;;24.00;99.90;;;;;;5101622;27;20597;-54
2022/07/25 00:51:17;;;;;;;6.43;5.20;;;24.00;99.90;;;;;;5104768;27;20203;-54
2022/07/25 00:53:44;;;;;;;6.50;5.33;;;24.00;99.90;;;;;;5102459;27;20694;-54
2022/07/25 00:56:11;;;;;;;7.57;5.17;;;24.00;99.90;;;;;;5105589;28;20269;-54
2022/07/25 00:58:38;;;;;;;6.40;5.27;;;23.90;99.90;;;;;;5103354;28;20302;-53
2022/07/25 01:01:05;;;;;;;7.07;5.37;;;24.00;99.90;;;;;;5104365;27;20206;-54
2022/07/25 01:03:33;;;;;;;6.77;5.40;;;24.00;99.90;;;;;;5106211;28;20216;-56
2022/07/25 01:06:00;;;;;;;5.87;5.33;;;24.00;99.90;;;;;;5103650;27;20206;-54
2022/07/25 01:08:28;;;;;;;5.87;5.07;;;23.90;99.90;;;;;;5085390;28;20309;-54
2022/07/25 01:10:55;;;;;;;5.73;5.13;;;23.90;99.90;;;;;;5085708;28;20202;-55
2022/07/25 01:13:22;;;;;;;8.13;5.30;;;23.80;99.90;;;;;;5088803;28;20626;-54
2022/07/25 01:15:49;;;;;;;9.03;5.30;;;23.80;99.90;;;;;;5069000;28;20216;-54
2022/07/25 01:18:17;;;;;;;6.27;4.87;;;23.80;99.90;;;;;;5081483;28;20235;-54
2022/07/25 01:20:44;;;;;;;5.80;4.97;;;23.90;99.90;;;;;;5104117;28;20727;-55
2022/07/25 01:23:11;;;;;;;5.13;4.63;;;23.80;99.90;;;;;;5084827;28;20718;-55
2022/07/25 01:25:41;;;;;;;5.93;5.00;;;23.80;99.90;;;;;;5102315;28;20208;-55
2022/07/25 01:28:08;;;;;;;6.30;5.00;;;23.80;99.90;;;;;;5054175;28;20192;-54
2022/07/25 01:30:35;;;;;;;6.00;4.70;;;23.80;99.90;;;;;;5080012;28;20226;-54
2022/07/25 01:33:03;;;;;;;7.17;5.07;;;23.80;99.90;;;;;;5104202;28;20193;-53
2022/07/25 01:35:33;;;;;;;6.67;5.30;;;23.80;99.90;;;;;;5103511;27;20190;-56
2022/07/25 01:38:00;;;;;;;9.27;5.33;;;23.80;99.90;;;;;;5082761;28;20201;-56
2022/07/25 01:40:27;;;;;;;5.90;5.30;;;23.80;99.90;;;;;;5064599;28;20620;-55
2022/07/25 01:42:54;;;;;;;6.37;5.50;;;23.70;99.90;;;;;;5068286;28;20198;-55
2022/07/25 01:45:21;;;;;;;5.80;4.90;;;23.70;99.90;;;;;;5066958;28;20205;-55
2022/07/25 01:47:48;;;;;;;7.97;5.07;;;23.60;99.90;;;;;;5100396;28;20212;-54
2022/07/25 01:50:15;;;;;;;5.87;5.13;;;23.60;99.90;;;;;;5085539;28;20205;-56
2022/07/25 01:52:43;;;;;;;6.37;5.47;;;23.60;99.90;;;;;;5084866;28;20255;-54
2022/07/25 01:55:10;;;;;;;7.03;5.23;;;23.70;99.90;;;;;;5083651;28;20229;-55
2022/07/25 01:57:38;;;;;;;5.67;5.03;;;23.70;99.90;;;;;;5101324;28;20242;-55
2022/07/25 02:00:09;;;;;;;6.43;5.10;;;23.70;99.90;;;;;;5101737;28;20711;-54
2022/07/25 02:02:36;;;;;;;5.80;5.20;;;23.60;99.90;;;;;;5083485;28;20926;-54
2022/07/25 02:05:03;;;;;;;5.20;4.67;;;23.70;99.90;;;;;;5085916;28;20209;-54
2022/07/25 02:07:33;;;;;;;6.83;5.07;;;23.70;99.90;;;;;;5085758;27;20702;-54
2022/07/25 02:10:00;;;;;;;8.50;5.03;;;23.60;99.90;;;;;;5107029;28;20221;-54
2022/07/25 02:12:27;;;;;;;7.97;5.77;;;23.70;99.90;;;;;;5104508;27;20246;-57
2022/07/25 02:14:55;;;;;;;5.70;4.77;;;23.70;99.90;;;;;;5092118;28;20205;-54
2022/07/25 02:17:22;;;;;;;5.83;5.23;;;23.60;99.90;;;;;;5085992;27;20198;-54
2022/07/25 02:19:49;;;;;;;6.50;4.90;;;23.60;99.90;;;;;;5108314;28;20220;-52
2022/07/25 02:22:16;;;;;;;5.93;5.13;;;23.50;99.90;;;;;;5088540;28;20294;-56
2022/07/25 02:24:43;;;;;;;6.27;5.67;;;23.50;99.90;;;;;;5106772;28;20213;-56
2022/07/25 02:27:13;;;;;;;7.13;5.47;;;23.50;99.90;;;;;;5106226;27;20645;-55
2022/07/25 02:29:40;;;;;;;6.50;4.93;;;23.30;99.90;;;;;;5087679;28;20648;-56
2022/07/25 02:32:08;;;;;;;6.17;5.57;;;23.20;99.90;;;;;;5104554;27;20279;-54
2022/07/25 02:34:38;;;;;;;6.70;4.97;;;23.40;99.90;;;;;;5106736;27;20206;-56
2022/07/25 02:37:07;;;;;;;6.03;5.47;;;23.40;99.90;;;;;;5083142;28;20198;-54
2022/07/25 02:39:35;;;;;;;8.47;5.47;;;23.30;99.90;;;;;;5071769;28;20198;-54
2022/07/25 02:42:01;;;;;;;5.67;5.13;;;23.30;99.90;;;;;;5090070;28;20267;-54
2022/07/25 02:44:29;;;;;;;6.23;5.63;;;23.20;99.90;;;;;;5092170;28;20198;-56
2022/07/25 02:46:58;;;;;;;5.97;5.47;;;23.00;99.90;;;;;;5102604;27;20194;-54
2022/07/25 02:49:25;;;;;;;6.83;5.47;;;22.90;99.90;;;;;;5071588;28;20649;-55
2022/07/25 02:51:52;;;;;;;6.37;5.60;;;22.90;99.90;;;;;;5087012;28;20326;-54
2022/07/25 02:54:19;;;;;;;6.60;5.73;;;22.90;99.90;;;;;;5086666;28;20221;-54
2022/07/25 02:56:46;;;;;;;6.73;6.03;;;23.00;99.90;;;;;;5102248;27;20560;-55
2022/07/25 02:59:13;;;;;;;10.47;5.30;;;22.80;99.90;;;;;;5107832;27;20197;-54
2022/07/25 03:01:41;;;;;;;7.53;5.60;;;22.80;99.90;;;;;;5084024;28;20225;-56
2022/07/25 03:04:08;;;;;;;11.33;6.30;;;23.00;99.90;;;;;;5089492;28;20208;-53
2022/07/25 03:06:36;;;;;;;6.83;6.00;;;22.90;99.90;;;;;;5069611;27;20684;-54
2022/07/25 03:09:03;;;;;;;7.93;6.33;;;22.90;99.90;;;;;;5106164;27;20652;-57
2022/07/25 03:11:34;;;;;;;7.03;6.27;;;22.90;99.90;;;;;;5069031;28;20791;-53
2022/07/25 03:14:00;;;;;;;7.47;6.60;;;22.90;99.90;;;;;;5106769;27;20201;-56
2022/07/25 03:16:28;;;;;;;8.00;5.70;;;22.90;99.90;;;;;;5088333;28;20202;-57
2022/07/25 03:18:57;;;;;;;6.60;5.90;;;22.80;99.90;;;;;;5086317;28;20198;-54
2022/07/25 03:21:24;;;;;;;7.00;6.10;;;22.70;99.90;;;;;;5106194;27;20221;-57
2022/07/25 03:23:51;;;;;;;8.60;5.93;;;22.70;99.90;;;;;;5088152;27;20675;-55
2022/07/25 03:26:19;;;;;;;7.07;6.20;;;22.70;99.90;;;;;;5100305;27;20205;-56
2022/07/25 03:28:46;;;;;;;6.93;6.17;;;22.70;99.90;;;;;;5104336;28;20673;-54
2022/07/25 03:31:13;;;;;;;6.77;5.77;;;22.60;99.90;;;;;;5086278;28;20237;-53
2022/07/25 03:33:40;;;;;;;6.80;6.10;;;22.70;99.90;;;;;;5087504;28;20306;-56
2022/07/25 03:36:09;;;;;;;8.20;6.47;;;22.70;99.90;;;;;;5087838;27;20248;-54
2022/07/25 03:38:36;;;;;;;9.30;6.00;;;22.70;99.90;;;;;;5103783;27;20209;-54
2022/07/25 03:41:03;;;;;;;7.00;6.13;;;22.70;99.90;;;;;;5104521;28;20303;-54
2022/07/25 03:43:30;;;;;;;7.93;5.80;;;22.60;99.90;;;;;;5104205;27;20237;-56
2022/07/25 03:45:57;;;;;;;6.97;5.93;;;22.50;99.90;;;;;;5103517;28;20198;-55
2022/07/25 03:48:25;;;;;;;7.73;6.10;;;22.50;99.90;;;;;;5106925;27;20276;-55
2022/07/25 03:50:52;;;;;;;7.67;6.83;;;22.60;99.90;;;;;;5084355;28;20282;-55
2022/07/25 03:53:18;;;;;;;9.10;6.43;;;22.50;99.90;;;;;;5088360;28;20205;-54
2022/07/25 03:55:45;;;;;;;8.10;6.07;;;22.50;99.90;;;;;;5087137;28;20234;-54
2022/07/25 03:58:12;;;;;;;9.63;6.10;;;22.50;99.90;;;;;;5100321;27;20720;-54
2022/07/25 04:00:42;;;;;;;8.60;6.63;;;22.50;99.90;;;;;;5081190;27;20747;-54
2022/07/25 04:03:09;;;;;;;7.67;6.33;;;22.70;99.90;;;;;;5087333;28;20603;-54
2022/07/25 04:05:36;;;;;;;7.03;5.93;;;22.70;99.90;;;;;;5105113;27;20293;-54
2022/07/25 04:08:03;;;;;;;6.67;5.97;;;22.70;99.90;;;;;;5103685;28;20302;-54
2022/07/25 04:10:30;;;;;;;7.07;6.17;;;22.70;99.90;;;;;;5102318;27;20293;-54
2022/07/25 04:12:57;;;;;;;7.20;5.70;;;22.70;99.90;;;;;;5083735;28;20209;-54
2022/07/25 04:15:24;;;;;;;6.53;5.90;;;22.50;99.90;;;;;;5104537;27;20213;-56
2022/07/25 04:17:51;;;;;;;6.43;5.83;;;22.40;99.90;;;;;;5085880;28;20248;-54
2022/07/25 04:20:19;;;;;;;10.10;6.93;;;22.50;99.90;;;;;;5102783;27;20287;-54
2022/07/25 04:22:45;;;;;;;6.90;6.17;;;22.40;99.90;;;;;;5086342;28;20488;-54
2022/07/25 04:25:13;;;;;;;6.97;6.27;;;22.60;99.90;;;;;;5102088;27;20804;-54
2022/07/25 04:27:40;;;;;;;7.73;6.40;;;22.40;99.90;;;;;;5065151;28;20217;-54
2022/07/25 04:30:07;;;;;;;8.30;6.13;;;22.40;99.90;;;;;;5083889;27;20289;-55
2022/07/25 04:32:34;;;;;;;9.27;5.90;;;22.40;99.90;;;;;;5080962;28;20227;-54
2022/07/25 04:35:02;;;;;;;7.83;6.17;;;22.30;99.90;;;;;;5102490;27;20234;-54
2022/07/25 04:37:28;;;;;;;9.70;6.70;;;22.40;99.90;;;;;;5104328;27;20222;-54
2022/07/25 04:39:55;;;;;;;7.23;6.53;;;22.40;99.90;;;;;;5105353;28;20598;-57
2022/07/25 04:42:22;;;;;;;7.03;6.33;;;22.40;99.90;;;;;;5105545;27;20618;-54
2022/07/25 04:44:49;;;;;;;8.17;7.27;;;22.40;99.90;;;;;;5102946;28;20237;-55
2022/07/25 04:47:16;;;;;;;7.53;6.80;;;22.40;99.90;;;;;;5085798;28;20313;-54
2022/07/25 04:49:43;;;;;;;10.77;7.50;;;22.50;99.90;;;;;;5071040;28;20205;-54
2022/07/25 04:52:10;;;;;;;8.13;6.97;;;22.30;99.90;;;;;;5081873;28;20205;-56
2022/07/25 04:54:37;;;;;;;9.70;7.33;;;22.30;99.90;;;;;;5104896;27;20228;-54
2022/07/25 04:57:04;;;;;;;8.90;7.20;;;22.30;99.90;;;;;;5068523;27;21033;-54
2022/07/25 04:59:31;;;;;;;7.93;6.80;;;22.40;99.90;;;;;;5104216;28;20207;-54
2022/07/25 05:01:58;;;;;;;9.40;7.43;;;22.50;99.90;;;;;;5085759;28;20221;-54
2022/07/25 05:04:25;;;;;;;7.37;6.57;;;22.40;99.90;;;;;;5070859;28;20266;-54
2022/07/25 05:06:52;;;;;;;7.93;7.03;;;22.30;99.90;;;;;;5103188;27;20733;-56
2022/07/25 05:09:19;;;;;;;9.13;7.10;;;22.40;99.90;;;;;;5103296;27;20741;-53
2022/07/25 05:11:46;;;;;;;8.90;6.30;;;22.20;99.90;;;;;;5101390;28;20205;-54
2022/07/25 05:14:21;;;;;;;9.57;7.20;;;22.20;99.90;;;;;;5102214;28;20691;-54
2022/07/25 05:16:48;;;;;;;7.67;6.97;;;22.10;99.90;;;;;;5099951;28;20251;-54
2022/07/25 05:19:15;;;;;;;11.70;7.40;;;22.20;99.90;;;;;;5071685;28;20202;-55
2022/07/25 05:21:43;;;;;;;8.00;7.20;;;22.20;99.90;;;;;;5103718;28;20557;-54
2022/07/25 05:24:10;;;;;;;7.53;6.77;;;22.20;99.90;;;;;;5103571;28;20645;-54
2022/07/25 05:26:37;;;;;;;12.20;8.60;;;22.20;99.90;;;;;;5100127;27;20479;-54
2022/07/25 05:29:05;;;;;;;7.50;6.80;;;22.20;99.90;;;;;;5104154;28;20234;-54
2022/07/25 05:31:35;;;;;;;9.97;6.63;;;22.20;99.90;;;;;;5085851;28;20316;-56
2022/07/25 05:34:04;;;;;;;11.10;6.80;;;22.20;99.90;;;;;;5103499;28;20621;-54
2022/07/25 05:36:32;;;;;;;8.87;7.97;;;22.10;99.90;;;;;;5085467;28;20199;-54
2022/07/25 05:38:59;;;;;;;9.27;6.77;;;22.10;99.90;;;;;;5102801;27;20644;-55
2022/07/25 05:41:26;;;;;;;12.13;6.97;;;22.00;99.90;;;;;;5083813;28;20212;-56
2022/07/25 05:43:53;;;;;;;8.87;6.77;;;22.10;99.90;;;;;;5104039;28;20213;-55
2022/07/25 05:46:20;;;;;;;8.47;6.90;;;22.30;99.90;;;;;;5064623;28;20255;-54
2022/07/25 05:48:51;;;;;;;6.93;6.07;;;22.50;99.90;;;;;;5068769;28;20204;-53
2022/07/25 05:51:18;;;;;;;10.53;7.20;;;22.40;99.90;;;;;;5105766;28;20232;-54
2022/07/25 05:53:45;;;;;;;9.27;6.10;;;22.30;99.90;;;;;;5085061;28;20225;-54
2022/07/25 05:56:12;;;;;;;12.30;6.70;;;22.30;99.90;;;;;;4728884;28;10000475;-54
2022/07/25 05:58:39;;;;;;;7.50;5.87;;;22.30;99.90;;;;;;5088713;28;20979;-55
2022/07/25 06:01:10;;;;;;;9.27;7.07;;;22.20;99.90;;;;;;5088478;28;20611;-54
2022/07/25 06:03:37;;;;;;;11.17;6.53;;;21.90;99.90;;;;;;5083972;28;20304;-54
2022/07/25 06:06:04;;;;;;;7.63;6.20;;;21.90;99.90;;;;;;5080253;28;20201;-53
2022/07/25 06:08:32;;;;;;;8.80;6.30;;;21.90;99.90;;;;;;5099995;28;20248;-53
2022/07/25 06:10:59;;;;;;;10.73;6.63;;;22.00;99.90;;;;;;5097878;28;20243;-55
2022/07/25 06:13:27;;;;;;;9.63;6.43;;;22.00;99.90;;;;;;5083325;28;20255;-54
2022/07/25 06:15:54;;;;;;;7.97;7.17;;;21.90;99.90;;;;;;5096645;28;20202;-56
2022/07/25 06:18:23;;;;;;;7.87;6.63;;;22.00;99.90;;;;;;5101753;28;20798;-54
2022/07/25 06:20:50;;;;;;;9.40;6.37;;;22.00;99.90;;;;;;5102346;28;20297;-55
2022/07/25 06:23:17;;;;;;;7.00;5.57;;;22.10;99.90;;;;;;5086412;28;20243;-55
2022/07/25 06:25:45;;;;;;;11.07;5.90;;;22.20;99.90;;;;;;5097946;28;20254;-52
2022/07/25 06:28:16;;;;;;;5.77;5.23;;;22.10;99.90;;;;;;5103417;28;20288;-55
2022/07/25 06:30:44;;;;;;;6.50;5.00;;;22.10;99.90;;;;;;5099876;28;20555;-55
2022/07/25 06:33:12;;;;;;;5.90;4.80;;;22.10;99.90;;;;;;5105324;28;20540;-54
2022/07/25 06:35:39;;;;;;;7.43;5.63;;;22.10;99.90;;;;;;5103144;28;20206;-54
2022/07/25 06:38:06;;;;;;;7.30;5.13;;;22.00;99.90;;;;;;5101990;28;20247;-53
2022/07/25 06:40:33;;;;;;;9.07;5.57;;;22.10;99.90;;;;;;5067037;28;20194;-54
2022/07/25 06:45:27;;;;;;;6.33;4.53;;;22.30;99.90;;;;;;5036748;28;20654;-53
2022/07/25 06:47:54;;;;;;;5.30;3.87;;;22.50;99.90;;;;;;5031393;28;20296;-56
2022/07/25 06:50:21;;;;;;;4.50;3.77;;;22.90;99.90;;;;;;5034095;28;20255;-53
2022/07/25 06:52:48;;;;;;;6.17;3.37;;;23.00;99.90;;;;;;5031040;28;20230;-55
2022/07/25 06:55:18;;;;;;;8.43;3.80;;;22.90;99.90;;;;;;5031279;28;20232;-54
2022/07/25 06:57:44;;;;;;;5.80;3.40;;;22.80;99.90;;;;;;5029120;28;20222;-56
2022/07/25 07:00:12;;;;;;;3.17;2.87;;;22.80;99.90;;;;;;5026321;28;20207;-55
2022/07/25 07:02:55;;;;;;;3.10;2.77;;;22.70;99.90;;;;;;5028741;28;21007;-54
2022/07/25 07:05:25;;;;;;;5.80;2.67;;;22.60;99.90;;;;;;5026053;28;20212;-56
2022/07/25 07:07:52;;;;;;;5.67;2.80;;;22.70;99.90;;;;;;5029093;28;20259;-55
2022/07/25 07:10:20;;;;;;;4.07;2.57;;;22.60;99.90;;;;;;5030562;28;20204;-56
2022/07/25 07:12:48;;;;;;;3.23;2.23;;;22.80;99.90;;;;;;5027477;28;20663;-59
2022/07/25 07:15:16;;;;;;;5.30;2.23;;;23.00;99.90;;;;;;5028788;28;20295;-60
2022/07/25 07:17:43;;;;;;;4.03;2.07;;;23.00;99.90;;;;;;5031822;28;20728;-59
2022/07/25 07:20:10;;;;;;;5.07;1.80;;;23.20;99.90;;;;;;5033966;28;20208;-61
2022/07/25 07:22:48;;;;;;;4.70;2.10;;;23.10;99.90;;;;;;5041828;28;20616;-60
2022/07/25 07:25:17;;;;;;;3.37;1.70;;;23.10;99.90;;;;;;5032769;28;20649;-60
2022/07/25 07:27:47;;;;;;;2.63;1.70;;;23.10;99.90;;;;;;5025996;28;20586;-60
2022/07/25 07:30:14;;;;;;;5.57;2.57;;;23.00;99.90;;;;;;5027150;28;20310;-59
2022/07/25 07:32:47;;;;;;;4.00;1.63;;;22.90;99.90;;;;;;5025704;28;20208;-59
2022/07/25 07:35:15;;;;;;;4.50;2.23;;;22.90;99.90;;;;;;5021562;28;20287;-59
2022/07/25 07:37:43;;;;;;;4.50;1.60;;;23.00;99.90;;;;;;5024205;28;20778;-60
2022/07/25 07:40:12;;;;;;;5.47;2.07;;;23.20;99.90;;;;;;5049583;28;20685;-60
2022/07/25 07:42:46;;;;;;;4.77;1.50;;;23.10;99.90;;;;;;5019453;28;20582;-59
2022/07/25 07:45:19;;;;;;;3.33;1.30;;;22.90;99.90;;;;;;5019051;28;20268;-61
2022/07/25 07:47:52;;;;;;;3.63;1.50;;;22.90;99.90;;;;;;5021240;28;20269;-60
2022/07/25 07:50:22;;;;;;;3.70;1.50;;;23.10;99.90;;;;;;5024069;28;20668;-62
2022/07/25 07:52:50;;;;;;;5.63;1.60;;;23.30;99.90;;;;;;5024052;28;20205;-61
2022/07/25 07:58:03;;;;;;;4.70;1.70;;;23.50;99.90;;;;;;5010211;28;20213;-60
2022/07/25 08:00:32;;;;;;;4.40;1.50;;;23.60;99.90;;;;;;5010787;28;20204;-59
2022/07/25 08:03:06;;;;;;;4.70;2.17;;;23.20;99.90;;;;;;4997091;28;20236;-59
2022/07/25 08:05:39;;;;;;;4.13;1.10;;;23.10;99.90;;;;;;5012364;28;20316;-60
2022/07/25 08:08:08;;;;;;;4.77;1.40;;;23.00;99.90;;;;;;5011566;28;20555;-61
2022/07/25 08:10:41;;;;;;;2.50;1.17;;;23.20;99.90;;;;;;5006390;28;20720;-60
2022/07/25 08:13:16;;;;;;;3.87;1.13;;;23.60;99.90;;;;;;5008418;28;20205;-61
2022/07/25 08:15:46;;;;;;;3.00;1.27;;;23.60;99.90;;;;;;5009333;28;20639;-60
2022/07/25 08:18:14;;;;;;;5.60;1.30;;;23.60;99.90;;;;;;5012570;28;20201;-59
2022/07/25 08:20:44;;;;;;;3.13;1.13;;;24.00;99.90;;;;;;5009144;28;20252;-61
2022/07/25 08:23:11;;;;;;;3.60;1.53;;;24.00;99.90;;;;;;5014316;28;20241;-60
2022/07/25 08:25:39;;;;;;;3.37;1.30;;;23.70;99.90;;;;;;5006682;28;20240;-60
2022/07/25 08:28:06;;;;;;;6.80;1.60;;;23.60;99.90;;;;;;5009613;28;20204;-61
2022/07/25 08:30:38;;;;;;;2.23;1.20;;;23.60;99.90;;;;;;5009812;28;20204;-60
2022/07/25 08:33:09;;;;;;;3.00;1.43;;;23.60;99.90;;;;;;5008351;28;20352;-60
2022/07/25 08:35:36;;;;;;;5.30;1.10;;;23.60;99.90;;;;;;5016830;28;20222;-60
2022/07/25 08:38:03;;;;;;;3.07;1.40;;;23.60;99.90;;;;;;5011574;28;20212;-62
2022/07/25 08:40:32;;;;;;;2.67;1.10;;;23.80;99.90;;;;;;5012683;28;20672;-55
2022/07/25 08:43:00;;;;;;;5.40;1.70;;;23.90;99.90;;;;;;5028594;28;20735;-56
2022/07/25 08:45:31;;;;;;;3.23;1.10;;;23.50;99.90;;;;;;5009312;28;20213;-54
2022/07/25 08:47:58;;;;;;;5.40;1.20;;;23.70;99.90;;;;;;5026660;28;20201;-52
2022/07/25 08:50:27;;;;;;;3.70;1.60;;;23.70;99.90;;;;;;5014608;28;20720;-53
2022/07/25 08:52:55;;;;;;;4.53;1.13;;;23.50;99.90;;;;;;5014534;28;20665;-56
2022/07/25 08:55:45;;;;;;;3.65;1.60;;;23.60;99.90;;;;;;5017324;28;20586;-54
2022/07/25 08:58:17;;;;;;;3.47;1.10;;;23.70;99.90;;;;;;5012662;28;20660;-56
2022/07/25 09:00:44;;;;;;;1.37;0.90;;;23.70;99.90;;;;;;5011372;28;20552;-55
2022/07/25 09:03:18;;;;;;;2.13;1.20;;;24.70;99.90;;;;;;5000175;28;20227;-55
2022/07/25 09:05:46;;;;;;;2.53;1.10;;;25.20;99.90;;;;;;5009043;28;20292;-55
2022/07/25 09:08:16;;;;;;;4.03;1.13;;;24.80;99.90;;;;;;5009283;28;20204;-57
2022/07/25 09:10:51;;;;;;;3.00;1.40;;;24.90;99.90;;;;;;5018447;28;20213;-55
2022/07/25 09:13:20;;;;;;;1.77;1.27;;;25.00;99.90;;;;;;5010018;28;20212;-56
2022/07/25 09:15:50;;;;;;;3.50;1.20;;;25.10;99.90;;;;;;5009602;28;20205;-55
2022/07/25 09:18:22;;;;;;;4.73;1.30;;;25.50;99.90;;;;;;5010278;28;20213;-55
2022/07/25 09:20:57;;;;;;;3.03;1.40;;;24.90;99.90;;;;;;5018716;28;20210;-56
2022/07/25 09:23:37;;;;;;;2.90;1.40;;;25.10;99.90;;;;;;5012766;28;20209;-55
2022/07/25 09:26:10;;;;;;;2.03;1.50;;;24.80;99.90;;;;;;5013178;28;20220;-56
2022/07/25 09:28:45;;;;;;;4.77;1.50;;;24.80;99.90;;;;;;5011884;28;20578;-55
2022/07/25 09:31:12;;;;;;;4.07;1.57;;;25.50;99.90;;;;;;5012719;28;20213;-54
2022/07/25 09:33:50;;;;;;;2.70;1.30;;;26.60;99.90;;;;;;5013768;28;20206;-56
2022/07/25 09:36:20;;;;;;;4.40;1.40;;;26.20;99.90;;;;;;5012393;28;20302;-55
2022/07/25 09:38:59;;;;;;;5.00;1.70;;;26.20;99.90;;;;;;5013210;28;20286;-54
2022/07/25 09:41:39;;;;;;;3.77;1.60;;;25.70;99.90;;;;;;5008526;28;20268;-55
2022/07/25 09:44:16;;;;;;;5.87;2.13;;;26.00;99.90;;;;;;5010786;28;20239;-55
2022/07/25 09:46:44;;;;;;;4.63;1.50;;;25.70;99.90;;;;;;5007811;28;20597;-54
2022/07/25 09:49:13;;;;;;;5.53;1.33;;;25.50;99.90;;;;;;5015157;28;20668;-54
2022/07/25 09:51:44;;;;;;;4.07;1.80;;;26.10;99.90;;;;;;5012246;28;20789;-54
2022/07/25 09:54:11;;;;;;;4.83;1.13;;;26.60;99.90;;;;;;5009520;28;20243;-55
2022/07/25 09:56:38;;;;;;;1.60;0.90;;;26.30;99.90;;;;;;5012624;28;20594;-55
2022/07/25 09:59:05;;;;;;;4.37;1.00;;;25.70;99.90;;;;;;5008698;28;20607;-56
2022/07/25 10:01:49;;;;;;;1.47;0.77;;;26.60;99.90;;;;;;5012432;28;20234;-55
2022/07/25 10:04:40;;;;;;;3.33;0.97;;;27.30;99.90;;;;;;5009881;28;20224;-55
2022/07/25 10:07:09;;;;;;;2.13;0.80;;;26.90;99.90;;;;;;5005990;28;20217;-55
2022/07/25 10:09:43;;;;;;;2.67;1.20;;;26.90;99.90;;;;;;5008536;28;20204;-55
2022/07/25 10:12:12;;;;;;;2.57;0.93;;;26.70;99.90;;;;;;5013821;28;20198;-54
2022/07/25 10:14:40;;;;;;;4.18;1.33;;;26.50;99.90;;;;;;5007555;28;20212;-55
2022/07/25 10:17:07;;;;;;;1.42;0.88;;;26.50;99.90;;;;;;5008111;28;20204;-56
2022/07/25 10:19:43;;;;;;;3.45;0.90;;;26.90;99.90;;;;;;5009392;28;20205;-55
2022/07/25 10:22:17;;;;;;;2.95;1.15;;;26.80;99.90;;;;;;5013141;28;20218;-56
2022/07/25 10:25:15;;;;;;;4.50;1.15;;;26.80;99.90;;;;;;5010114;28;20228;-56
2022/07/25 10:27:47;;;;;;;4.65;1.20;;;26.30;99.90;;;;;;5004589;28;20197;-54
2022/07/25 10:30:26;;;;;;;2.70;2.15;;;25.80;99.90;;;;;;5010404;28;20201;-55
2022/07/25 10:32:58;;;;;;;3.17;1.27;;;25.50;99.90;;;;;;5007029;28;20207;-55
2022/07/25 10:35:26;;;;;;;3.60;1.30;;;25.60;99.90;;;;;;5016874;28;20212;-55
2022/07/25 10:37:57;;;;;;;3.55;1.30;;;25.80;99.90;;;;;;5013171;28;20201;-58
2022/07/25 10:40:37;;;;;;;5.50;1.65;;;26.00;99.90;;;;;;5014128;28;20204;-55
2022/07/25 10:43:16;;;;;;;4.60;1.77;;;26.00;99.90;;;;;;5010961;28;20207;-55
2022/07/25 10:45:48;;;;;;;2.37;1.33;;;25.80;99.90;;;;;;5009321;28;20275;-55
2022/07/25 10:48:27;;;;;;;3.47;1.40;;;25.80;99.90;;;;;;5014980;28;20286;-55
2022/07/25 10:50:57;;;;;;;5.47;1.63;;;25.60;99.90;;;;;;5010581;28;20205;-57
2022/07/25 10:53:31;;;;;;;4.17;1.70;;;25.50;99.90;;;;;;5012996;28;20215;-55
2022/07/25 10:56:14;;;;;;;2.77;1.70;;;25.50;99.90;;;;;;5014705;28;20483;-55
2022/07/25 10:58:55;;;;;;;4.17;1.60;;;25.40;99.90;;;;;;5011434;28;20223;-54
2022/07/25 11:01:27;;;;;;;7.03;2.40;;;25.50;99.90;;;;;;5005993;28;20238;-56
2022/07/25 11:04:01;;;;;;;3.80;2.00;;;25.20;99.90;;;;;;4996053;28;20203;-53
2022/07/25 11:06:39;;;;;;;5.93;2.10;;;25.20;99.90;;;;;;5011126;28;20206;-54
2022/07/25 11:09:23;;;;;;;5.03;1.93;;;25.00;99.90;;;;;;5006052;28;20286;-54
2022/07/25 11:11:58;;;;;;;5.00;2.30;;;25.00;99.90;;;;;;5005104;28;20690;-54
2022/07/25 11:14:40;;;;;;;4.83;2.23;;;25.00;99.90;;;;;;5006585;28;22371;-55
2022/07/25 11:17:31;;;;;;;4.33;1.93;;;25.00;99.90;;;;;;5014639;28;20292;-57
2022/07/25 11:20:03;;;;;;;5.20;1.97;;;24.80;99.90;;;;;;5014043;28;20598;-54
2022/07/25 11:22:31;;;;;;;4.20;2.10;;;24.80;99.90;;;;;;5008073;28;20212;-55
2022/07/25 11:24:59;;;;;;;3.40;2.00;;;24.90;99.90;;;;;;5041652;28;20243;-55
2022/07/25 11:27:27;;;;;;;5.03;1.93;;;24.80;99.90;;;;;;5007339;28;20609;-55
2022/07/25 11:30:05;;;;;;;5.63;2.50;;;24.80;99.90;;;;;;5010253;28;20202;-55
2022/07/25 11:32:44;;;;;;;3.93;2.40;;;24.60;99.90;;;;;;5013161;28;20731;-56
2022/07/25 11:35:13;;;;;;;2.47;1.90;;;24.70;99.90;;;;;;5014038;28;20617;-55
2022/07/25 11:37:47;;;;;;;4.00;1.60;;;24.80;99.90;;;;;;5045793;28;20239;-56
2022/07/25 11:40:15;;;;;;;5.87;2.60;;;24.80;99.90;;;;;;5011365;28;20226;-55
2022/07/25 11:42:48;;;;;;;3.57;1.93;;;24.60;99.90;;;;;;5011757;28;20488;-54
2022/07/25 11:45:19;;;;;;;5.00;1.83;;;25.00;99.90;;;;;;5014211;28;20310;-54
2022/07/25 11:47:48;;;;;;;3.20;2.10;;;24.70;99.90;;;;;;5014018;28;20267;-55
2022/07/25 11:50:16;;;;;;;5.97;1.90;;;24.90;99.90;;;;;;5014417;28;20580;-55
2022/07/25 11:52:44;;;;;;;3.00;1.93;;;24.90;99.90;;;;;;5012361;28;20213;-57
2022/07/25 11:55:16;;;;;;;3.93;2.20;;;25.00;99.90;;;;;;5009477;28;20319;-54
2022/07/25 11:57:45;;;;;;;3.87;2.00;;;25.00;99.90;;;;;;5007885;28;20463;-55
2022/07/25 12:00:20;;;;;;;3.03;2.10;;;24.60;99.90;;;;;;5011776;28;20471;-54
2022/07/25 12:02:48;;;;;;;6.73;2.53;;;24.10;99.90;;;;;;5012063;28;20196;-56
2022/07/25 12:05:29;;;;;;;4.00;2.47;;;24.20;99.90;;;;;;5026117;28;20226;-54
2022/07/25 12:08:08;;;;;;;5.60;3.10;;;24.30;99.90;;;;;;5013911;28;20195;-54
2022/07/25 12:10:39;;;;;;;4.47;2.40;;;24.10;99.90;;;;;;5013762;28;20208;-54
2022/07/25 12:13:08;;;;;;;4.00;2.40;;;24.20;99.90;;;;;;5008637;28;20262;-53
2022/07/25 12:15:38;;;;;;;3.57;2.40;;;24.00;99.90;;;;;;5010588;28;20531;-52
2022/07/25 12:18:08;;;;;;;5.37;2.73;;;23.60;99.90;;;;;;5007865;28;20608;-54
2022/07/25 12:20:38;;;;;;;5.47;2.93;;;23.60;99.90;;;;;;5015640;28;20197;-54
2022/07/25 12:23:10;;;;;;;5.37;2.23;;;23.50;99.90;;;;;;5014360;28;20729;-54
2022/07/25 12:25:43;;;;;;;5.10;2.20;;;23.50;99.90;;;;;;5008813;28;20221;-54
2022/07/25 12:28:11;;;;;;;6.57;3.07;;;23.60;99.90;;;;;;5013092;28;20207;-54
2022/07/25 12:30:42;;;;;;;7.00;2.83;;;23.40;99.90;;;;;;5010592;28;20196;-52
2022/07/25 12:33:10;;;;;;;5.07;2.30;;;23.40;99.90;;;;;;5010079;28;20212;-52
2022/07/25 12:35:40;;;;;;;6.53;2.60;;;23.40;99.90;;;;;;5006487;28;20326;-53
2022/07/25 12:38:07;;;;;;;4.77;2.43;;;23.30;99.90;;;;;;5017220;28;20651;-54
2022/07/25 12:40:34;;;;;;;4.63;1.97;;;23.20;99.90;;;;;;5013895;28;20209;-55
2022/07/25 12:43:03;;;;;;;3.13;1.70;;;23.30;99.90;;;;;;4995494;28;20208;-54
2022/07/25 12:45:31;;;;;;;5.27;2.17;;;23.40;99.90;;;;;;5008515;28;20307;-56
2022/07/25 12:47:58;;;;;;;4.60;2.00;;;23.60;99.90;;;;;;5011855;28;20251;-53
2022/07/25 12:50:25;;;;;;;9.40;2.43;;;23.90;99.90;;;;;;5042325;28;20619;-54
2022/07/25 12:52:52;;;;;;;3.73;1.93;;;24.10;99.90;;;;;;5008675;28;20217;-53
2022/07/25 12:55:20;;;;;;;3.63;2.00;;;24.40;99.90;;;;;;5008596;28;20311;-54
2022/07/25 12:57:48;;;;;;;4.80;2.17;;;24.70;99.90;;;;;;5007862;28;20210;-54
2022/07/25 13:00:18;;;;;;;6.10;1.90;;;24.90;99.90;;;;;;5011735;28;20260;-55
2022/07/25 13:02:50;;;;;;;6.27;2.27;;;24.90;99.90;;;;;;5009105;28;20220;-54